createdAt,value
2022-08-28T00:01:29.026Z,10.00
2022-08-28T00:03:59.257Z,9.30
2022-08-28T00:06:28.807Z,10.80
2022-08-28T00:08:58.039Z,10.90
2022-08-28T00:11:26.641Z,10.00
2022-08-28T00:13:56.780Z,9.80
2022-08-28T00:16:26.662Z,9.80
2022-08-28T00:18:55.171Z,9.90
2022-08-28T00:21:25.088Z,10.40
2022-08-28T00:23:54.276Z,10.60
2022-08-28T00:26:42.202Z,10.90
2022-08-28T00:29:11.432Z,10.40
2022-08-28T00:31:40.169Z,9.50
2022-08-28T00:34:10.198Z,9.50
2022-08-28T00:36:41.257Z,9.50
2022-08-28T00:39:10.287Z,10.20
2022-08-28T00:41:41.194Z,11.50
2022-08-28T00:44:18.109Z,11.10
2022-08-28T00:46:49.212Z,11.20
2022-08-28T00:49:21.853Z,10.20
2022-08-28T00:52:12.989Z,10.90
2022-08-28T00:54:59.446Z,10.40
2022-08-28T00:57:42.908Z,10.70
2022-08-28T01:00:14.512Z,11.90
2022-08-28T01:02:44.320Z,11.90
2022-08-28T01:05:16.040Z,11.20
2022-08-28T01:07:45.712Z,10.70
2022-08-28T01:10:19.057Z,10.40
2022-08-28T01:12:50.291Z,9.80
2022-08-28T01:15:24.864Z,10.90
2022-08-28T01:17:57.629Z,10.70
2022-08-28T01:20:31.344Z,11.60
2022-08-28T01:23:25.155Z,12.10
2022-08-28T01:25:53.918Z,10.40
2022-08-28T01:28:22.859Z,15.00
2022-08-28T01:30:51.397Z,11.80
2022-08-28T01:33:20.108Z,11.20
2022-08-28T01:35:57.859Z,12.00
2022-08-28T01:38:27.021Z,11.50
2022-08-28T01:40:58.220Z,11.20
2022-08-28T01:43:28.624Z,11.00
2022-08-28T01:46:02.572Z,10.80
2022-08-28T01:48:34.774Z,11.70
2022-08-28T01:51:05.856Z,12.00
2022-08-28T01:53:35.989Z,13.20
2022-08-28T01:56:09.138Z,12.20
2022-08-28T01:58:39.608Z,11.80
2022-08-28T02:01:17.865Z,12.10
2022-08-28T02:03:48.268Z,11.60
2022-08-28T02:08:47.085Z,13.70
2022-08-28T02:11:17.117Z,12.30
2022-08-28T02:13:45.833Z,12.20
2022-08-28T02:16:20.687Z,11.80
2022-08-28T02:18:49.622Z,12.70
2022-08-28T02:21:18.534Z,12.40
2022-08-28T02:23:47.977Z,12.60
2022-08-28T02:26:17.652Z,12.60
2022-08-28T02:28:46.330Z,11.90
2022-08-28T02:31:15.289Z,11.30
2022-08-28T02:33:45.609Z,12.00
2022-08-28T02:36:16.045Z,11.90
2022-08-28T02:38:46.718Z,11.80
2022-08-28T02:41:15.387Z,13.20
2022-08-28T02:43:44.246Z,13.70
2022-08-28T02:46:13.357Z,13.30
2022-08-28T02:48:42.598Z,12.30
2022-08-28T02:51:14.005Z,12.10
2022-08-28T02:53:43.582Z,12.10
2022-08-28T02:56:13.034Z,12.60
2022-08-28T02:58:41.591Z,12.70
2022-08-28T03:01:12.539Z,13.40
2022-08-28T03:03:42.295Z,13.00
2022-08-28T03:06:12.945Z,13.90
2022-08-28T03:08:43.117Z,14.30
2022-08-28T03:13:43.019Z,13.00
2022-08-28T03:16:12.274Z,11.90
2022-08-28T03:18:41.938Z,12.20
2022-08-28T03:21:11.528Z,13.50
2022-08-28T03:23:40.521Z,12.00
2022-08-28T03:26:12.201Z,12.70
2022-08-28T03:28:47.538Z,13.00
2022-08-28T03:31:20.326Z,13.10
2022-08-28T03:33:50.225Z,12.80
2022-08-28T03:36:23.449Z,11.70
2022-08-28T03:38:55.082Z,11.80
2022-08-28T03:41:25.922Z,11.40
2022-08-28T03:43:55.155Z,12.10
2022-08-28T03:46:25.419Z,12.40
2022-08-28T03:48:55.229Z,11.00
2022-08-28T03:51:29.588Z,12.50
2022-08-28T03:54:04.434Z,12.70
2022-08-28T03:56:33.821Z,14.20
2022-08-28T03:59:04.669Z,12.90
2022-08-28T04:01:33.933Z,12.50
2022-08-28T04:04:02.941Z,12.80
2022-08-28T04:06:32.289Z,11.80
2022-08-28T04:09:01.046Z,12.60
2022-08-28T04:11:30.691Z,11.60
2022-08-28T04:13:59.755Z,11.60
2022-08-28T04:16:29.000Z,12.80
2022-08-28T04:18:58.604Z,12.40
2022-08-28T04:21:28.460Z,12.80
2022-08-28T04:23:57.071Z,13.50
2022-08-28T04:26:28.119Z,12.60
2022-08-28T04:28:57.016Z,11.70
2022-08-28T04:31:32.401Z,12.20
2022-08-28T04:34:05.710Z,12.30
2022-08-28T04:36:34.583Z,11.00
2022-08-28T04:39:06.489Z,13.40
2022-08-28T04:41:37.645Z,12.60
2022-08-28T04:44:07.714Z,12.50
2022-08-28T04:46:36.919Z,13.20
2022-08-28T04:49:06.303Z,11.90
2022-08-28T04:51:37.863Z,12.20
2022-08-28T04:54:13.765Z,11.40
2022-08-28T04:56:42.577Z,11.70
2022-08-28T04:59:12.155Z,11.30
2022-08-28T05:01:43.338Z,11.40
2022-08-28T05:04:13.066Z,12.00
2022-08-28T05:06:46.755Z,11.50
2022-08-28T05:09:18.577Z,11.80
2022-08-28T05:11:49.398Z,11.00
2022-08-28T05:14:18.146Z,11.30
2022-08-28T05:16:50.055Z,11.60
2022-08-28T05:19:20.576Z,10.90
2022-08-28T05:21:49.189Z,11.60
2022-08-28T05:24:18.738Z,12.40
2022-08-28T05:26:48.016Z,11.30
2022-08-28T05:29:18.781Z,11.00
2022-08-28T05:31:48.068Z,11.90
2022-08-28T05:34:17.721Z,13.00
2022-08-28T05:36:47.087Z,11.30
2022-08-28T05:39:17.396Z,11.40
2022-08-28T05:41:47.187Z,12.10
2022-08-28T05:44:17.713Z,13.30
2022-08-28T05:46:49.761Z,13.00
2022-08-28T05:49:20.415Z,13.30
2022-08-28T05:51:49.908Z,12.30
2022-08-28T05:54:18.562Z,12.00
2022-08-28T05:56:47.845Z,12.00
2022-08-28T05:59:17.502Z,12.20
2022-08-28T06:01:49.294Z,11.10
2022-08-28T06:04:25.094Z,13.10
2022-08-28T06:06:54.667Z,12.20
2022-08-28T06:09:29.325Z,11.90
2022-08-28T06:12:01.932Z,11.80
2022-08-28T06:14:32.674Z,11.30
2022-08-28T06:17:02.898Z,10.20
2022-08-28T06:22:07.249Z,8.90
2022-08-28T06:24:37.129Z,9.50
2022-08-28T06:27:06.296Z,8.00
2022-08-28T06:29:34.948Z,6.90
2022-08-28T06:32:05.085Z,5.90
2022-08-28T06:34:35.194Z,4.90
2022-08-28T06:37:03.846Z,5.20
2022-08-28T06:39:32.536Z,3.80
2022-08-28T06:42:02.167Z,4.20
2022-08-28T06:44:32.546Z,3.80
2022-08-28T06:47:01.284Z,3.60
2022-08-28T06:49:30.262Z,3.70
2022-08-28T06:51:59.062Z,3.50
2022-08-28T06:54:31.529Z,3.70
2022-08-28T06:57:00.473Z,3.70
2022-08-28T06:59:29.069Z,3.10
2022-08-28T07:01:57.872Z,2.70
2022-08-28T07:04:28.025Z,3.00
2022-08-28T07:09:25.601Z,2.40
2022-08-28T07:11:54.136Z,1.90
2022-08-28T07:14:23.627Z,1.40
2022-08-28T07:16:55.332Z,1.20
2022-08-28T07:19:24.543Z,1.20
2022-08-28T07:21:53.544Z,1.20
2022-08-28T07:24:23.904Z,1.80
2022-08-28T07:26:53.155Z,1.20
2022-08-28T07:29:22.320Z,1.20
2022-08-28T07:31:54.051Z,1.40
2022-08-28T07:34:27.141Z,1.30
2022-08-28T07:36:58.798Z,0.90
2022-08-28T07:39:27.695Z,1.00
2022-08-28T07:41:56.347Z,0.90
2022-08-28T07:44:43.606Z,1.70
2022-08-28T07:47:12.977Z,2.60
2022-08-28T07:49:41.972Z,1.30
2022-08-28T07:52:12.182Z,1.10
2022-08-28T07:54:41.562Z,1.40
2022-08-28T07:57:10.621Z,1.00
2022-08-28T07:59:42.280Z,1.00
2022-08-28T08:02:13.755Z,1.30
2022-08-28T08:04:43.726Z,1.10
2022-08-28T08:07:13.125Z,0.70
2022-08-28T08:09:43.738Z,0.90
2022-08-28T08:12:14.121Z,0.90
2022-08-28T08:14:44.201Z,1.70
2022-08-28T08:19:42.476Z,1.00
2022-08-28T08:22:11.486Z,0.60
2022-08-28T08:24:41.747Z,0.70
2022-08-28T08:27:11.312Z,0.50
2022-08-28T08:29:39.910Z,0.80
2022-08-28T08:32:11.531Z,0.90
2022-08-28T08:34:50.148Z,0.80
2022-08-28T08:37:19.367Z,0.50
2022-08-28T08:39:48.536Z,0.70
2022-08-28T08:42:24.954Z,0.70
2022-08-28T08:44:57.353Z,0.60
2022-08-28T08:47:33.341Z,1.00
2022-08-28T08:50:07.145Z,0.70
2022-08-28T08:53:03.253Z,0.40
2022-08-28T08:55:38.006Z,0.40
2022-08-28T08:58:26.800Z,0.70
2022-08-28T09:01:04.952Z,0.70
2022-08-28T09:04:04.900Z,0.70
2022-08-28T09:06:50.418Z,0.70
2022-08-28T09:09:34.715Z,0.80
2022-08-28T09:12:07.534Z,0.70
2022-08-28T09:15:06.345Z,0.60
2022-08-28T09:17:56.320Z,0.70
2022-08-28T09:20:32.300Z,0.90
2022-08-28T09:23:12.551Z,0.80
2022-08-28T09:25:45.324Z,1.20
2022-08-28T09:28:27.424Z,1.70
2022-08-28T09:31:08.254Z,0.80
2022-08-28T09:33:40.098Z,1.10
2022-08-28T09:36:34.053Z,1.10
2022-08-28T09:39:21.739Z,1.20
2022-08-28T09:42:22.038Z,1.50
2022-08-28T09:44:54.393Z,1.50
2022-08-28T09:47:42.855Z,1.30
2022-08-28T09:50:19.195Z,1.30
2022-08-28T09:52:48.945Z,2.00
2022-08-28T09:55:39.245Z,1.60
2022-08-28T09:58:09.585Z,1.40
2022-08-28T10:00:43.678Z,1.50
2022-08-28T10:03:18.931Z,1.20
2022-08-28T10:06:01.794Z,1.90
2022-08-28T10:08:41.445Z,1.80
2022-08-28T10:11:24.575Z,1.70
2022-08-28T10:14:14.548Z,2.30
2022-08-28T10:19:19.359Z,1.00
2022-08-28T10:22:18.402Z,0.70
2022-08-28T10:25:04.082Z,2.00
2022-08-28T10:28:01.302Z,1.20
2022-08-28T10:30:35.521Z,1.40
2022-08-28T10:33:27.485Z,1.40
2022-08-28T10:36:33.274Z,0.70
2022-08-28T10:39:21.346Z,1.00
2022-08-28T10:42:01.034Z,0.80
2022-08-28T10:44:37.508Z,1.20
2022-08-28T10:47:07.668Z,1.60
2022-08-28T10:49:46.297Z,1.00
2022-08-28T10:52:31.489Z,0.90
2022-08-28T10:55:11.038Z,1.10
2022-08-28T10:57:45.925Z,1.20
2022-08-28T11:00:21.562Z,0.60
2022-08-28T11:02:54.963Z,0.70
2022-08-28T11:05:28.247Z,0.50
2022-08-28T11:08:05.878Z,0.90
2022-08-28T11:10:39.301Z,1.90
2022-08-28T11:13:10.779Z,3.80
2022-08-28T11:15:53.952Z,1.70
2022-08-28T11:18:22.912Z,0.60
2022-08-28T11:21:12.453Z,0.50
2022-08-28T11:23:51.400Z,0.60
2022-08-28T11:26:50.912Z,1.00
2022-08-28T11:30:07.280Z,1.10
2022-08-28T11:32:57.366Z,0.60
2022-08-28T11:35:49.439Z,0.60
2022-08-28T11:38:43.754Z,1.20
2022-08-28T11:41:23.083Z,0.90
2022-08-28T11:44:12.983Z,0.90
2022-08-28T11:49:26.712Z,1.20
2022-08-28T11:52:24.098Z,1.10
2022-08-28T11:55:08.372Z,0.90
2022-08-28T11:58:15.096Z,1.10
2022-08-28T12:00:53.390Z,1.40
2022-08-28T12:03:34.187Z,1.10
2022-08-28T12:06:03.966Z,0.90
2022-08-28T12:08:45.091Z,1.50
2022-08-28T12:11:42.513Z,1.20
2022-08-28T12:14:32.331Z,1.60
2022-08-28T12:17:01.731Z,1.20
2022-08-28T12:19:33.170Z,1.10
2022-08-28T12:22:11.904Z,1.10
2022-08-28T12:24:49.449Z,0.90
2022-08-28T12:27:19.531Z,0.90
2022-08-28T12:29:55.956Z,1.10
2022-08-28T12:32:51.221Z,1.20
2022-08-28T12:35:31.048Z,1.80
2022-08-28T12:38:06.601Z,1.50
2022-08-28T12:40:38.295Z,1.60
2022-08-28T12:43:15.345Z,1.60
2022-08-28T12:46:05.341Z,1.70
2022-08-28T12:48:49.707Z,1.20
2022-08-28T12:51:25.563Z,2.80
2022-08-28T12:53:58.014Z,2.60
2022-08-28T12:56:34.732Z,1.50
2022-08-28T12:59:23.129Z,1.10
2022-08-28T13:02:03.216Z,1.70
2022-08-28T13:04:37.514Z,1.30
2022-08-28T13:07:17.263Z,1.40
2022-08-28T13:09:52.330Z,1.70
2022-08-28T13:12:37.870Z,1.90
2022-08-28T13:15:44.540Z,1.80
2022-08-28T13:18:42.579Z,2.20
2022-08-28T13:21:24.600Z,3.10
2022-08-28T13:24:22.333Z,2.00
2022-08-28T13:27:17.924Z,2.30
2022-08-28T13:30:05.011Z,2.10
2022-08-28T13:32:37.537Z,1.80
2022-08-28T13:35:09.521Z,2.00
2022-08-28T13:37:59.812Z,2.00
2022-08-28T13:43:26.139Z,2.80
2022-08-28T13:45:55.703Z,2.90
2022-08-28T13:48:27.227Z,2.40
2022-08-28T13:51:07.624Z,3.10
2022-08-28T13:53:40.821Z,2.20
2022-08-28T13:56:09.596Z,3.10
2022-08-28T13:58:38.375Z,3.20
2022-08-28T14:01:07.681Z,3.10
2022-08-28T14:03:38.883Z,3.00
2022-08-28T14:06:07.614Z,4.00
2022-08-28T14:08:36.457Z,3.70
2022-08-28T14:11:07.616Z,3.10
2022-08-28T14:13:36.309Z,3.20
2022-08-28T14:16:07.633Z,3.10
2022-08-28T14:18:36.735Z,3.00
2022-08-28T14:21:06.909Z,4.60
2022-08-28T14:26:06.279Z,3.50
2022-08-28T14:28:34.842Z,3.60
2022-08-28T14:31:05.838Z,4.30
2022-08-28T14:33:36.986Z,4.10
2022-08-28T14:36:06.708Z,4.20
2022-08-28T14:38:36.244Z,4.30
2022-08-28T14:43:37.100Z,4.60
2022-08-28T14:46:09.686Z,3.70
2022-08-28T14:48:40.429Z,3.50
2022-08-28T14:51:09.421Z,4.40
2022-08-28T14:53:38.018Z,3.60
2022-08-28T14:56:08.623Z,3.90
2022-08-28T14:58:38.128Z,4.10
2022-08-28T15:01:07.191Z,3.40
2022-08-28T15:03:36.428Z,3.80
2022-08-28T15:06:08.753Z,4.30
2022-08-28T15:08:38.385Z,3.50
2022-08-28T15:11:09.364Z,4.40
2022-08-28T15:13:38.264Z,4.20
2022-08-28T15:16:16.021Z,4.40
2022-08-28T15:18:46.484Z,4.50
2022-08-28T15:21:43.399Z,5.00
2022-08-28T15:24:13.207Z,4.40
2022-08-28T15:26:42.210Z,5.30
2022-08-28T15:29:12.573Z,4.60
2022-08-28T15:31:45.667Z,4.70
2022-08-28T15:34:25.789Z,6.60
2022-08-28T15:36:56.576Z,6.20
2022-08-28T15:39:46.129Z,6.60
2022-08-28T15:42:15.902Z,6.70
2022-08-28T15:44:44.813Z,7.30
2022-08-28T15:47:16.594Z,7.90
2022-08-28T15:49:49.884Z,12.50
2022-08-28T15:52:21.296Z,7.20
2022-08-28T15:54:50.038Z,6.60
2022-08-28T15:57:19.137Z,8.70
2022-08-28T15:59:50.357Z,6.70
2022-08-28T16:02:25.862Z,6.90
2022-08-28T16:04:55.742Z,7.10
2022-08-28T16:09:53.984Z,6.00
2022-08-28T16:12:23.269Z,7.40
2022-08-28T16:14:52.459Z,6.90
2022-08-28T16:17:21.202Z,7.60
2022-08-28T16:19:50.097Z,7.30
2022-08-28T16:22:19.559Z,7.00
2022-08-28T16:24:48.490Z,6.00
2022-08-28T16:27:18.090Z,6.00
2022-08-28T16:29:49.452Z,5.70
2022-08-28T16:32:22.021Z,5.40
2022-08-28T16:34:52.178Z,6.10
2022-08-28T16:37:21.360Z,6.40
2022-08-28T16:39:56.462Z,6.30
2022-08-28T16:42:27.697Z,6.90
2022-08-28T16:45:00.550Z,6.40
2022-08-28T16:47:31.819Z,6.70
2022-08-28T16:50:03.290Z,7.50
2022-08-28T16:52:32.259Z,6.30
2022-08-28T16:55:01.284Z,7.50
2022-08-28T16:57:30.775Z,6.60
2022-08-28T17:00:00.505Z,6.70
2022-08-28T17:02:48.139Z,7.60
2022-08-28T17:05:48.956Z,6.80
2022-08-28T17:08:55.914Z,6.90
2022-08-28T17:11:52.267Z,7.60
2022-08-28T17:14:41.832Z,7.70
2022-08-28T17:17:44.274Z,7.10
2022-08-28T17:21:04.803Z,6.70
2022-08-28T17:24:06.421Z,7.00
2022-08-28T17:27:09.705Z,6.30
2022-08-28T17:30:12.615Z,8.50
2022-08-28T17:33:06.897Z,8.90
2022-08-28T17:36:17.074Z,7.10
2022-08-28T17:39:12.159Z,7.80
2022-08-28T17:41:42.736Z,8.00
2022-08-28T17:44:11.493Z,7.40
2022-08-28T17:46:40.509Z,8.50
2022-08-28T17:49:10.280Z,7.80
2022-08-28T17:51:43.515Z,7.00
2022-08-28T17:54:15.867Z,7.50
2022-08-28T17:56:45.263Z,8.00
2022-08-28T17:59:14.590Z,6.90
2022-08-28T18:01:45.303Z,7.30
2022-08-28T18:04:20.112Z,7.30
2022-08-28T18:06:55.072Z,7.70
2022-08-28T18:09:27.314Z,7.20
2022-08-28T18:11:56.335Z,7.00
2022-08-28T18:14:25.831Z,6.60
2022-08-28T18:16:55.039Z,6.60
2022-08-28T18:19:24.740Z,6.40
2022-08-28T18:21:54.087Z,6.00
2022-08-28T18:24:23.009Z,8.20
2022-08-28T18:26:53.878Z,7.70
2022-08-28T18:29:23.164Z,6.70
2022-08-28T18:31:55.155Z,6.50
2022-08-28T18:34:24.279Z,6.50
2022-08-28T18:36:52.866Z,7.00
2022-08-28T18:39:29.940Z,6.70
2022-08-28T18:41:58.888Z,6.60
2022-08-28T18:44:28.911Z,7.20
2022-08-28T18:46:57.530Z,5.70
2022-08-28T18:49:27.762Z,5.40
2022-08-28T18:51:57.202Z,5.50
2022-08-28T18:54:26.083Z,6.30
2022-08-28T18:57:01.418Z,6.10
2022-08-28T18:59:34.056Z,6.20
2022-08-28T19:02:03.815Z,41.80
2022-08-28T19:04:34.077Z,5.40
2022-08-28T19:07:03.691Z,4.80
2022-08-28T19:09:34.774Z,17.80
2022-08-28T19:12:04.976Z,17.00
2022-08-28T19:14:34.569Z,6.00
2022-08-28T19:17:03.994Z,5.30
2022-08-28T19:19:34.608Z,5.30
2022-08-28T19:22:04.609Z,4.90
2022-08-28T19:24:37.245Z,4.90
2022-08-28T19:27:06.503Z,5.10
2022-08-28T19:29:35.718Z,5.40
2022-08-28T19:32:06.511Z,6.20
2022-08-28T19:34:36.728Z,5.90
2022-08-28T19:37:06.146Z,5.20
2022-08-28T19:39:34.828Z,5.30
2022-08-28T19:42:04.045Z,6.10
2022-08-28T19:44:32.687Z,5.30
2022-08-28T19:47:02.289Z,6.50
2022-08-28T19:49:31.737Z,6.10
2022-08-28T19:52:00.548Z,5.60
2022-08-28T19:54:30.179Z,5.60
2022-08-28T19:56:59.912Z,5.30
2022-08-28T19:59:28.661Z,5.50
2022-08-28T20:01:57.571Z,5.80
2022-08-28T20:04:26.744Z,5.40
2022-08-28T20:06:55.272Z,6.30
2022-08-28T20:09:24.280Z,7.80
2022-08-28T20:11:54.084Z,5.90
2022-08-28T20:14:23.380Z,5.80
2022-08-28T20:16:52.841Z,6.80
2022-08-28T20:19:23.770Z,6.30
2022-08-28T20:21:52.454Z,5.60
2022-08-28T20:24:24.774Z,5.80
2022-08-28T20:26:54.297Z,6.10
2022-08-28T20:29:24.513Z,6.30
2022-08-28T20:31:53.306Z,5.20
2022-08-28T20:34:23.468Z,4.80
2022-08-28T20:36:52.207Z,5.50
2022-08-28T20:39:22.189Z,5.80
2022-08-28T20:41:51.748Z,5.90
2022-08-28T20:44:22.225Z,5.70
2022-08-28T20:46:53.751Z,6.00
2022-08-28T20:49:24.378Z,5.40
2022-08-28T20:51:53.636Z,5.60
2022-08-28T20:54:32.413Z,6.40
2022-08-28T20:57:06.217Z,6.30
2022-08-28T20:59:40.099Z,5.70
2022-08-28T21:02:12.905Z,5.20
2022-08-28T21:04:43.368Z,5.20
2022-08-28T21:10:04.626Z,6.20
2022-08-28T21:12:31.810Z,5.30
2022-08-28T21:15:00.909Z,5.80
2022-08-28T21:17:30.748Z,5.20
2022-08-28T21:20:04.407Z,5.30
2022-08-28T21:22:35.896Z,5.60
2022-08-28T21:25:07.867Z,6.00
2022-08-28T21:27:37.886Z,5.80
2022-08-28T21:30:08.577Z,5.20
2022-08-28T21:32:37.610Z,4.90
2022-08-28T21:35:09.019Z,5.50
2022-08-28T21:37:40.491Z,4.50
2022-08-28T21:40:11.807Z,5.10
2022-08-28T21:42:42.303Z,4.80
2022-08-28T21:50:12.090Z,5.30
2022-08-28T21:55:13.186Z,4.80
2022-08-28T21:57:43.093Z,4.30
2022-08-28T22:00:18.067Z,4.70
2022-08-28T22:02:48.135Z,4.70
2022-08-28T22:05:17.552Z,3.70
2022-08-28T22:07:46.323Z,5.00
2022-08-28T22:10:15.613Z,5.30
2022-08-28T22:12:44.322Z,5.60
2022-08-28T22:15:13.277Z,4.90
2022-08-28T22:17:42.488Z,4.50
2022-08-28T22:20:11.644Z,4.70
2022-08-28T22:22:59.087Z,4.70
2022-08-28T22:25:28.316Z,4.40
2022-08-28T22:27:56.971Z,5.30
2022-08-28T22:30:27.192Z,4.60
2022-08-28T22:32:57.016Z,4.90
2022-08-28T22:35:25.535Z,4.70
2022-08-28T22:37:54.917Z,4.10
2022-08-28T22:40:24.579Z,4.40
2022-08-28T22:42:53.141Z,3.70
2022-08-28T22:45:22.602Z,5.00
2022-08-28T22:47:51.273Z,4.20
2022-08-28T22:50:20.779Z,4.10
2022-08-28T22:52:50.134Z,4.80
2022-08-28T22:55:20.769Z,5.00
2022-08-28T22:57:50.442Z,4.00
2022-08-28T23:00:24.431Z,4.60
2022-08-28T23:02:55.663Z,4.60
2022-08-28T23:05:27.194Z,4.40
2022-08-28T23:07:56.003Z,5.10
2022-08-28T23:10:42.051Z,4.30
2022-08-28T23:13:14.645Z,5.00
2022-08-28T23:15:43.917Z,3.80
2022-08-28T23:18:12.577Z,4.30
2022-08-28T23:20:42.917Z,5.10
2022-08-28T23:23:12.292Z,4.90
2022-08-28T23:25:41.491Z,4.10
2022-08-28T23:28:10.728Z,4.10
2022-08-28T23:30:48.268Z,4.20
2022-08-28T23:33:23.231Z,4.60
2022-08-28T23:35:52.838Z,4.50
2022-08-28T23:38:22.345Z,5.20
2022-08-28T23:40:51.480Z,3.80
2022-08-28T23:43:20.240Z,3.70
2022-08-28T23:45:49.741Z,4.00
2022-08-28T23:48:19.202Z,4.50
2022-08-28T23:50:47.789Z,4.30
2022-08-28T23:53:17.753Z,4.40
2022-08-28T23:55:46.534Z,4.70
2022-08-28T23:58:20.677Z,5.10
